Airfield :
LOGIN :

Register | Disclaimer

   EN    FR    IT 

 










Legend :    VFR   Marginal VFR   IFR   Intensive IFR   Very Intensive IFR
Visi :
Ceiling :
>= 8 km
>= 3000ft
5 to 8 km
1000 to 3000 ft
1500m to 5 km
500 to 1000 ft
800 to 1500m
200 to 500 ft
< 800m
< 200 ft
Symbols :   Thunderstorms  Fog  Heavy snow  Heavy precipitations  Wind > 20 kt
SIGMETs :     Misc.  Thunderstorms  Icing  Turbulence  Mountain Waves  Volcanic Ashes







- Airport Elevation : 464 ft
- IATA code : EVX
- Download approach charts


LFOE - Evreux

CURRENT METAR :
  • 202030Z AUTO 32007KT 260V350 CAVOK 19/14 Q1017 NOSIG

EXPIRED METARs :
  • 202000Z AUTO 32007KT 290V350 CAVOK 21/14 Q1016 NOSIG
  • 201930Z AUTO 30005KT CAVOK 22/14 Q1016 NOSIG
  • 201900Z AUTO 30008KT 9999 ///CB 22/15 Q1015 BECMG NSC
  • 201830Z AUTO 30008KT 9999 SCT043/// BKN054/// OVC066/// ///CB 23/15 Q1015 BECMG NSC
  • 201800Z AUTO 30007KT 280V350 9999 ///TCU 24/15 Q1014 BECMG NSC

TAF TAF LFOE
Valid from the 20 at 21:00 until the 21 at 21:00 UTC


202000Z 2021/2121 30005KT CAVOK
No reported NOTAMs for that airfield.
1 SIGMET reported for the Paris FIR (LFFF) :
 
Embedded thunderstorms
LFFF SIGMET 6 VALID 202000/202200 LFPW
LFFF PARIS FIR/UIR EMBD TS OBS S OF N4715 AND E OF E00345 TOP FL380 MOV NE 20KT NC=



MET'MAP, your aeronautical weather chart ! - Copyright ORBIFLY December 2007 - Disclaimer

ORBIFLY MET'MAP TEAM :

Programming & Development : Alexandra Zaïnal
Concept & Development : Baudouin d'Aumeries
Co-Development & Prog : Marc-Olivier Méhu
Technical & hardware support : Manuel Goepfert

Contact : metmap@orbifly.com




SOURCES & CREDITS :

   NOAA